createdAt,value
2022-10-30T00:00:30.382Z,99070.53
2022-10-30T00:02:35.703Z,99067.25
2022-10-30T00:04:40.726Z,99068.81
2022-10-30T00:06:45.672Z,99066.16
2022-10-30T00:08:50.615Z,99065.97
2022-10-30T00:10:58.104Z,99065.94
2022-10-30T00:13:03.104Z,99077.69
2022-10-30T00:15:10.249Z,99073.41
2022-10-30T00:17:15.202Z,99070.88
2022-10-30T00:19:20.162Z,99075.81
2022-10-30T00:21:25.096Z,99075.78
2022-10-30T00:23:30.002Z,99080.84
2022-10-30T00:25:34.958Z,99076.66
2022-10-30T00:27:42.521Z,99068.25
2022-10-30T00:29:47.547Z,99069.09
2022-10-30T00:31:52.537Z,99065.78
2022-10-30T00:33:58.061Z,99064.06
2022-10-30T00:36:03.432Z,99056.44
2022-10-30T00:38:08.407Z,99064.06
2022-10-30T00:40:18.127Z,99069.97
2022-10-30T00:42:23.380Z,99063.44
2022-10-30T00:44:50.335Z,99061.94
2022-10-30T00:46:55.417Z,99058.72
2022-10-30T00:49:05.899Z,99045.31
2022-10-30T00:51:14.151Z,99049.56
2022-10-30T00:53:23.237Z,99052.19
2022-10-30T00:55:34.384Z,99051.44
2022-10-30T00:57:41.050Z,99044.75
2022-10-30T00:59:50.701Z,99052.50
2022-10-30T01:01:57.145Z,99052.56
2022-10-30T01:04:05.238Z,99050.97
2022-10-30T01:06:14.910Z,99047.72
2022-10-30T01:08:20.468Z,99049.50
2022-10-30T01:10:25.955Z,99033.59
2022-10-30T01:12:31.221Z,99052.88
2022-10-30T01:14:39.120Z,99027.78
2022-10-30T01:17:04.676Z,99031.06
2022-10-30T01:19:28.874Z,99030.13
2022-10-30T01:21:53.224Z,99038.31
2022-10-30T01:24:13.923Z,99039.97
2022-10-30T01:26:29.130Z,99030.72
2022-10-30T01:28:53.768Z,99028.81
2022-10-30T02:13:39.280Z,99018.88
2022-10-30T02:15:48.153Z,99024.72
2022-10-30T02:17:53.185Z,99022.28
2022-10-30T02:19:58.637Z,99021.56
2022-10-30T02:22:06.536Z,99014.94
2022-10-30T02:24:11.725Z,99016.63
2022-10-30T02:26:16.803Z,99009.09
2022-10-30T02:28:21.814Z,99011.75
2022-10-30T02:30:27.356Z,99013.41
2022-10-30T02:32:32.955Z,99010.03
2022-10-30T02:34:38.175Z,99021.78
2022-10-30T02:36:43.109Z,99027.59
2022-10-30T02:38:51.712Z,99027.59
2022-10-30T02:40:56.647Z,99029.34
2022-10-30T02:43:01.664Z,99021.81
2022-10-30T02:45:09.063Z,99026.84
2022-10-30T02:47:14.130Z,99023.56
2022-10-30T02:49:19.108Z,99018.53
2022-10-30T02:51:24.070Z,99020.31
2022-10-30T02:53:29.103Z,99025.44
2022-10-30T02:55:37.783Z,99015.44
2022-10-30T02:57:42.815Z,99017.16
2022-10-30T02:59:47.811Z,99015.56
2022-10-30T03:01:53.102Z,99014.81
2022-10-30T03:03:59.348Z,99016.50
2022-10-30T03:06:05.327Z,99019.88
2022-10-30T03:08:10.305Z,99024.03
2022-10-30T03:10:15.217Z,99032.44
2022-10-30T03:12:22.798Z,99032.56
2022-10-30T03:14:30.305Z,99035.22
2022-10-30T03:16:35.315Z,99035.16
2022-10-30T03:18:40.705Z,99028.56
2022-10-30T03:20:48.035Z,99027.78
2022-10-30T03:22:53.086Z,99042.91
2022-10-30T03:24:58.049Z,99043.91
2022-10-30T03:27:03.151Z,99038.97
2022-10-30T03:29:10.906Z,99036.56
2022-10-30T03:34:05.242Z,99046.84
2022-10-30T03:36:12.868Z,99054.50
2022-10-30T03:38:18.045Z,99054.47
2022-10-30T03:40:23.067Z,99056.00
2022-10-30T03:42:28.317Z,99056.84
2022-10-30T03:44:35.963Z,99051.91
2022-10-30T03:46:41.813Z,99063.78
2022-10-30T03:49:01.533Z,99063.09
2022-10-30T03:51:08.691Z,99064.88
2022-10-30T03:53:17.523Z,99065.78
2022-10-30T03:55:27.152Z,99068.31
2022-10-30T03:57:33.693Z,99065.06
2022-10-30T03:59:55.606Z,99061.72
2022-10-30T04:04:48.541Z,99055.38
2022-10-30T04:06:55.046Z,99051.25
2022-10-30T04:09:02.112Z,99053.94
2022-10-30T04:11:14.803Z,99043.88
2022-10-30T04:13:22.452Z,99047.22
2022-10-30T04:15:36.416Z,99053.09
2022-10-30T04:17:42.234Z,99046.38
2022-10-30T04:19:49.589Z,99044.63
2022-10-30T04:21:56.403Z,99051.25
2022-10-30T04:24:02.116Z,99049.50
2022-10-30T04:26:11.265Z,99052.78
2022-10-30T04:28:21.727Z,99045.25
2022-10-30T04:30:28.022Z,99042.69
2022-10-30T04:32:36.907Z,99040.97
2022-10-30T04:34:43.552Z,99039.47
2022-10-30T04:36:50.899Z,99041.16
2022-10-30T04:38:56.822Z,99037.81
2022-10-30T04:41:05.171Z,99030.34
2022-10-30T04:43:25.334Z,99034.34
2022-10-30T04:45:31.682Z,99031.84
2022-10-30T04:47:41.499Z,99022.50
2022-10-30T04:49:47.571Z,99025.91
2022-10-30T04:51:54.226Z,99017.47
2022-10-30T04:54:02.040Z,99022.34
2022-10-30T04:56:14.089Z,99014.72
2022-10-30T04:58:20.425Z,99008.84
2022-10-30T05:00:32.871Z,99004.34
2022-10-30T05:02:51.301Z,99008.34
2022-10-30T05:04:57.179Z,99003.28
2022-10-30T05:07:03.879Z,98994.72
2022-10-30T05:09:10.733Z,98996.25
2022-10-30T05:11:19.362Z,98993.69
2022-10-30T05:13:27.279Z,98999.38
2022-10-30T05:15:33.566Z,99001.81
2022-10-30T05:17:40.258Z,99002.44
2022-10-30T05:19:50.660Z,98989.78
2022-10-30T05:21:56.742Z,98995.63
2022-10-30T05:24:03.309Z,98990.47
2022-10-30T05:26:17.021Z,98991.91
2022-10-30T05:28:23.689Z,98986.72
2022-10-30T05:33:50.750Z,98991.66
2022-10-30T05:36:00.527Z,98993.56
2022-10-30T05:38:09.545Z,98992.09
2022-10-30T05:40:17.117Z,98993.91
2022-10-30T05:42:23.620Z,98988.88
2022-10-30T05:44:58.648Z,98989.00
2022-10-30T06:04:00.192Z,98993.66
2022-10-30T06:06:06.831Z,99005.28
2022-10-30T06:08:13.879Z,99003.59
2022-10-30T06:10:21.202Z,99008.47
2022-10-30T06:12:44.250Z,99006.50
2022-10-30T06:15:02.705Z,99002.31
2022-10-30T06:17:10.777Z,99004.94
2022-10-30T06:19:32.792Z,99010.00
2022-10-30T06:22:09.069Z,99005.06
2022-10-30T06:24:27.669Z,99009.09
2022-10-30T06:26:54.383Z,99013.13
2022-10-30T06:29:03.265Z,99013.91
2022-10-30T06:31:10.749Z,99013.00
2022-10-30T06:33:18.311Z,99011.28
2022-10-30T06:35:32.173Z,99015.41
2022-10-30T06:37:40.237Z,99017.06
2022-10-30T06:39:50.384Z,99020.28
2022-10-30T06:42:19.426Z,99018.53
2022-10-30T06:44:58.601Z,99019.28
2022-10-30T06:47:05.823Z,99015.81
2022-10-30T06:49:12.210Z,99012.34
2022-10-30T06:51:22.122Z,99012.91
2022-10-30T06:53:31.901Z,99013.44
2022-10-30T06:56:18.064Z,99012.94
2022-10-30T06:58:57.308Z,99013.31
2022-10-30T07:01:15.218Z,99008.78
2022-10-30T07:03:50.382Z,99021.06
2022-10-30T07:05:56.910Z,99020.75
2022-10-30T07:08:07.438Z,99019.69
2022-10-30T07:10:14.449Z,99021.03
2022-10-30T07:13:01.124Z,99022.06
2022-10-30T07:15:29.154Z,99029.78
2022-10-30T07:17:43.710Z,99033.50
2022-10-30T07:19:59.201Z,99036.19
2022-10-30T07:22:06.057Z,99039.28
2022-10-30T07:24:16.622Z,99044.47
2022-10-30T07:26:50.889Z,99050.22
2022-10-30T07:29:10.466Z,99047.50
2022-10-30T07:31:41.532Z,99059.00
2022-10-30T07:33:48.959Z,99060.34
2022-10-30T07:36:21.356Z,99056.31
2022-10-30T07:38:32.146Z,99065.91
2022-10-30T07:40:56.824Z,99071.03
2022-10-30T07:43:21.873Z,99058.66
2022-10-30T07:46:01.730Z,99066.59
2022-10-30T07:48:44.046Z,99067.31
2022-10-30T07:51:07.228Z,99066.31
2022-10-30T07:53:17.406Z,99073.47
2022-10-30T07:55:26.062Z,99073.28
2022-10-30T07:57:40.428Z,99074.63
2022-10-30T07:59:58.210Z,99069.38
2022-10-30T08:02:18.599Z,99064.31
2022-10-30T08:04:53.333Z,99074.09
2022-10-30T08:07:33.831Z,99062.03
2022-10-30T08:09:41.555Z,99070.19
2022-10-30T08:11:47.838Z,99065.03
2022-10-30T08:13:57.958Z,99067.28
2022-10-30T08:16:04.315Z,99069.59
2022-10-30T08:18:12.489Z,99065.81
2022-10-30T08:20:24.244Z,99058.84
2022-10-30T08:22:31.711Z,99065.06
2022-10-30T08:24:40.007Z,99062.06
2022-10-30T08:26:46.001Z,99067.59
2022-10-30T08:28:52.674Z,99060.25
2022-10-30T08:31:02.567Z,99069.75
2022-10-30T08:33:30.038Z,99070.97
2022-10-30T08:37:42.004Z,99061.13
2022-10-30T08:39:48.993Z,99068.06
2022-10-30T08:42:14.616Z,99057.78
2022-10-30T08:44:23.949Z,99063.84
2022-10-30T08:46:50.548Z,99066.94
2022-10-30T08:48:58.903Z,99059.75
2022-10-30T08:51:05.466Z,99061.50
2022-10-30T08:53:18.362Z,99058.19
2022-10-30T08:55:25.799Z,99047.16
2022-10-30T08:57:32.391Z,99054.56
2022-10-30T08:59:39.922Z,99047.22
2022-10-30T09:01:55.207Z,99045.94
2022-10-30T09:04:00.346Z,99041.03
2022-10-30T09:06:28.803Z,99038.44
2022-10-30T09:08:56.992Z,99032.53
2022-10-30T09:11:09.932Z,99032.03
2022-10-30T09:13:15.313Z,99029.69
2022-10-30T09:15:21.232Z,99030.50
2022-10-30T09:17:36.444Z,99030.19
2022-10-30T09:19:42.294Z,99031.00
2022-10-30T09:21:51.836Z,99039.84
2022-10-30T09:23:57.020Z,99027.94
2022-10-30T09:26:17.039Z,99032.00
2022-10-30T09:28:32.156Z,99034.75
2022-10-30T09:30:57.154Z,99030.75
2022-10-30T09:33:07.070Z,99042.56
2022-10-30T09:35:33.100Z,99034.81
2022-10-30T09:37:39.105Z,99035.16
2022-10-30T09:39:56.873Z,99036.09
2022-10-30T09:42:39.993Z,99038.25
2022-10-30T09:47:43.516Z,99045.28
2022-10-30T09:50:23.085Z,99045.84
2022-10-30T09:52:37.701Z,99041.28
2022-10-30T09:54:58.405Z,99039.19
2022-10-30T09:57:09.468Z,99041.16
2022-10-30T09:59:31.572Z,99049.28
2022-10-30T10:01:45.202Z,99050.25
2022-10-30T10:04:04.314Z,99049.00
2022-10-30T10:06:44.749Z,99049.44
2022-10-30T10:09:16.996Z,99046.09
2022-10-30T10:11:45.385Z,99044.25
2022-10-30T10:13:56.771Z,99051.53
2022-10-30T10:16:10.481Z,99045.81
2022-10-30T10:18:20.728Z,99048.78
2022-10-30T10:20:35.564Z,99036.50
2022-10-30T10:22:50.694Z,99043.03
2022-10-30T11:03:00.111Z,99019.69
2022-10-30T11:05:20.907Z,99023.22
2022-10-30T11:07:29.559Z,99017.13
2022-10-30T11:09:34.530Z,99014.63
2022-10-30T11:11:39.559Z,99019.09
2022-10-30T11:13:46.706Z,99013.00
2022-10-30T11:16:02.614Z,99005.31
2022-10-30T11:18:14.845Z,99006.88
2022-10-30T11:20:28.198Z,99010.81
2022-10-30T11:22:36.200Z,99001.84
2022-10-30T11:24:41.193Z,98996.34
2022-10-30T11:26:46.302Z,98999.75
2022-10-30T11:28:55.695Z,98989.13
2022-10-30T11:31:22.203Z,98996.88
2022-10-30T11:33:33.412Z,98992.75
2022-10-30T11:35:45.427Z,98998.53
2022-10-30T11:37:52.813Z,98990.56
2022-10-30T11:40:07.363Z,98992.78
2022-10-30T11:42:17.336Z,98985.31
2022-10-30T11:44:22.518Z,98985.19
2022-10-30T11:46:28.155Z,98987.84
2022-10-30T11:48:38.225Z,98982.59
2022-10-30T11:50:50.361Z,98988.78
2022-10-30T11:53:01.224Z,98988.09
2022-10-30T11:55:17.934Z,98982.47
2022-10-30T11:57:27.464Z,98987.75
2022-10-30T11:59:32.747Z,98985.63
2022-10-30T12:01:39.745Z,98981.41
2022-10-30T12:03:48.112Z,98985.53
2022-10-30T12:05:53.101Z,98983.88
2022-10-30T12:08:20.260Z,98991.59
2022-10-30T12:10:28.702Z,98988.56
2022-10-30T12:12:41.239Z,98982.97
2022-10-30T12:14:46.303Z,98987.84
2022-10-30T12:16:53.835Z,98985.00
2022-10-30T12:19:09.313Z,98980.53
2022-10-30T12:21:22.006Z,98979.22
2022-10-30T12:23:29.629Z,98979.81
2022-10-30T12:25:35.733Z,98970.47
2022-10-30T12:27:41.159Z,98970.97
2022-10-30T12:30:10.015Z,98966.44
2022-10-30T12:32:22.292Z,98964.94
2022-10-30T12:34:47.369Z,98964.28
2022-10-30T12:36:58.875Z,98956.88
2022-10-30T12:39:13.147Z,98959.19
2022-10-30T12:41:27.380Z,98958.81
2022-10-30T12:43:36.282Z,98951.75
2022-10-30T12:45:46.086Z,98964.25
2022-10-30T12:48:00.657Z,98958.22
2022-10-30T12:50:21.650Z,98957.63
2022-10-30T12:52:36.904Z,98956.28
2022-10-30T13:04:19.938Z,98949.78
2022-10-30T13:06:34.504Z,98944.69
2022-10-30T13:08:50.948Z,98945.72
2022-10-30T13:11:03.050Z,98943.06
2022-10-30T13:13:16.189Z,98947.19
2022-10-30T13:15:29.052Z,98936.03
2022-10-30T13:17:33.846Z,98937.53
2022-10-30T13:19:43.891Z,98918.50
2022-10-30T13:22:01.842Z,98930.88
2022-10-30T13:24:13.788Z,98933.28
2022-10-30T13:26:32.852Z,98929.97
2022-10-30T13:28:46.349Z,98925.41
2022-10-30T13:31:02.639Z,98925.00
2022-10-30T13:33:18.682Z,98924.38
2022-10-30T13:35:36.070Z,98924.25
2022-10-30T13:37:50.512Z,98922.06
2022-10-30T13:40:14.694Z,98922.63
2022-10-30T13:42:38.375Z,98923.84
2022-10-30T13:44:58.887Z,98917.88
2022-10-30T13:47:18.067Z,98922.69
2022-10-30T13:49:41.849Z,98927.63
2022-10-30T13:51:49.590Z,98929.56
2022-10-30T13:54:10.380Z,98929.19
2022-10-30T13:56:22.074Z,98921.69
2022-10-30T13:58:37.758Z,98927.16
2022-10-30T14:01:03.124Z,98929.00
2022-10-30T14:03:30.649Z,98929.91
2022-10-30T14:05:49.082Z,98929.06
2022-10-30T14:08:05.988Z,98931.91
2022-10-30T14:10:23.312Z,98928.94
2022-10-30T14:12:54.651Z,98922.56
2022-10-30T14:14:59.813Z,98932.88
2022-10-30T14:17:15.750Z,98927.28
2022-10-30T14:19:21.678Z,98927.88
2022-10-30T14:21:59.968Z,98925.06
2022-10-30T14:33:54.900Z,98916.78
2022-10-30T14:36:47.426Z,98916.63
2022-10-30T14:39:30.310Z,98914.56
2022-10-30T14:41:51.407Z,98909.63
2022-10-30T14:44:12.925Z,98917.63
2022-10-30T14:46:29.334Z,98907.53
2022-10-30T14:48:48.638Z,98916.63
2022-10-30T14:51:11.855Z,98918.25
2022-10-30T14:53:41.615Z,98916.97
2022-10-30T14:56:00.296Z,98917.28
2022-10-30T14:58:27.439Z,98921.34
2022-10-30T15:00:42.112Z,98919.38
2022-10-30T15:02:57.890Z,98934.13
2022-10-30T15:05:42.044Z,98933.75
2022-10-30T15:07:58.119Z,98928.19
2022-10-30T15:10:18.981Z,98935.72
2022-10-30T15:13:02.255Z,98940.91
2022-10-30T15:15:13.718Z,98942.31
2022-10-30T15:17:29.343Z,98937.22
2022-10-30T15:19:37.225Z,98932.72
2022-10-30T15:21:46.691Z,98943.44
2022-10-30T15:23:57.838Z,98944.72
2022-10-30T15:26:09.832Z,98938.44
2022-10-30T15:28:20.321Z,98942.66
2022-10-30T15:30:28.959Z,98943.53
2022-10-30T15:32:34.063Z,98941.66
2022-10-30T15:34:39.167Z,98947.41
2022-10-30T15:36:45.249Z,98946.47
2022-10-30T15:39:13.938Z,98944.78
2022-10-30T15:41:19.783Z,98946.31
2022-10-30T15:43:30.975Z,98951.03
2022-10-30T15:45:41.940Z,98955.78
2022-10-30T15:47:50.606Z,98950.53
2022-10-30T15:49:57.196Z,98950.22
2022-10-30T15:52:04.947Z,98949.09
2022-10-30T15:54:16.354Z,98952.94
2022-10-30T15:56:28.512Z,98951.28
2022-10-30T15:58:37.676Z,98952.84
2022-10-30T16:00:43.177Z,98960.91
2022-10-30T16:02:51.902Z,98960.72
2022-10-30T16:04:56.956Z,98961.66
2022-10-30T16:07:05.778Z,98965.84
2022-10-30T16:09:17.478Z,98963.94
2022-10-30T16:11:24.714Z,98967.47
2022-10-30T16:13:33.343Z,98964.94
2022-10-30T16:15:42.798Z,98969.06
2022-10-30T16:17:51.787Z,98958.28
2022-10-30T16:20:06.170Z,98962.28
2022-10-30T16:22:22.644Z,98964.63
2022-10-30T16:24:35.631Z,98967.22
2022-10-30T16:26:41.266Z,98963.28
2022-10-30T16:28:50.619Z,98963.06
2022-10-30T16:30:56.626Z,98971.19
2022-10-30T16:33:02.841Z,98969.03
2022-10-30T16:35:10.245Z,98967.13
2022-10-30T16:37:20.988Z,98967.72
2022-10-30T16:39:29.572Z,98960.44
2022-10-30T16:41:35.825Z,98969.16
2022-10-30T16:43:41.732Z,98968.88
2022-10-30T16:45:51.785Z,98966.72
2022-10-30T16:48:08.587Z,98975.66
2022-10-30T16:50:18.698Z,98974.50
2022-10-30T16:52:28.496Z,98970.59
2022-10-30T16:54:41.362Z,98974.19
2022-10-30T16:56:49.773Z,98972.13
2022-10-30T16:58:57.339Z,98970.72
2022-10-30T17:01:09.673Z,98983.47
2022-10-30T17:03:15.207Z,98986.00
2022-10-30T17:05:26.816Z,98988.00
2022-10-30T17:07:31.979Z,98988.31
2022-10-30T17:09:42.797Z,98996.00
2022-10-30T17:12:03.177Z,98992.19
2022-10-30T17:14:20.559Z,99004.16
2022-10-30T17:16:28.024Z,98998.69
2022-10-30T17:18:33.814Z,99004.56
2022-10-30T17:20:39.598Z,99008.09
2022-10-30T17:22:44.652Z,99010.78
2022-10-30T17:24:52.466Z,99012.69
2022-10-30T17:27:00.754Z,99014.50
2022-10-30T17:29:05.913Z,99007.03
2022-10-30T17:31:26.781Z,99017.25
2022-10-30T17:33:38.855Z,99017.44
2022-10-30T17:35:43.877Z,99017.94
2022-10-30T17:37:49.200Z,99024.66
2022-10-30T17:39:56.957Z,99027.38
2022-10-30T17:42:02.167Z,99021.66
2022-10-30T17:44:10.058Z,99018.34
2022-10-30T17:46:20.130Z,99029.44
2022-10-30T17:48:29.588Z,99030.50
2022-10-30T17:50:34.892Z,99027.22
2022-10-30T17:52:39.948Z,99042.56
2022-10-30T17:54:45.747Z,99040.38
2022-10-30T17:56:53.708Z,99041.44
2022-10-30T17:58:58.933Z,99048.44
2022-10-30T18:01:04.127Z,99044.19
2022-10-30T18:03:09.470Z,99049.38
2022-10-30T18:05:21.445Z,99050.22
2022-10-30T18:07:26.323Z,99052.00
2022-10-30T18:09:31.220Z,99049.50
2022-10-30T18:11:36.446Z,99057.31
2022-10-30T18:13:45.072Z,99059.16
2022-10-30T18:15:57.272Z,99057.59
2022-10-30T18:18:02.488Z,99061.06
2022-10-30T18:20:09.435Z,99061.97
2022-10-30T18:22:14.341Z,99056.91
2022-10-30T18:24:19.288Z,99069.88
2022-10-30T18:26:26.700Z,99065.81
2022-10-30T18:28:32.022Z,99061.81
2022-10-30T18:30:39.575Z,99068.72
2022-10-30T18:32:45.946Z,99069.59
2022-10-30T18:34:50.949Z,99068.81
2022-10-30T18:36:56.111Z,99071.25
2022-10-30T18:39:01.096Z,99065.44
2022-10-30T18:41:06.692Z,99067.25
2022-10-30T18:43:13.525Z,99067.41
2022-10-30T18:45:26.352Z,99070.16
2022-10-30T18:47:34.142Z,99079.53
2022-10-30T18:49:39.290Z,99073.00
2022-10-30T18:51:44.710Z,99081.50
2022-10-30T18:53:53.820Z,99087.22
2022-10-30T18:55:59.053Z,99078.13
2022-10-30T18:58:04.333Z,99071.41
2022-10-30T19:00:12.058Z,99074.03
2022-10-30T19:02:23.452Z,99068.28
2022-10-30T19:04:31.779Z,99083.53
2022-10-30T19:06:38.596Z,99081.97
2022-10-30T19:08:43.873Z,99090.53
2022-10-30T19:10:50.227Z,99078.81
2022-10-30T19:13:16.923Z,99087.31
2022-10-30T19:15:27.858Z,99092.34
2022-10-30T19:17:33.390Z,99088.88
2022-10-30T19:19:41.683Z,99094.88
2022-10-30T19:21:46.672Z,99092.25
2022-10-30T19:32:56.545Z,99094.41
2022-10-30T19:35:04.283Z,99105.53
2022-10-30T19:37:11.870Z,99102.34
2022-10-30T19:39:18.631Z,99099.84
2022-10-30T19:41:24.860Z,99106.63
2022-10-30T19:43:30.633Z,99107.63
2022-10-30T19:45:37.378Z,99108.63
2022-10-30T19:47:42.721Z,99102.69
2022-10-30T19:49:48.193Z,99100.06
2022-10-30T19:51:55.873Z,99102.81
2022-10-30T19:54:00.951Z,99096.25
2022-10-30T19:56:06.541Z,99106.28
2022-10-30T19:58:16.423Z,99103.06
2022-10-30T20:00:24.812Z,99121.63
2022-10-30T20:02:30.536Z,99118.44
2022-10-30T20:04:35.651Z,99117.69
2022-10-30T20:06:40.926Z,99115.84
2022-10-30T20:08:49.377Z,99123.38
2022-10-30T20:10:57.061Z,99128.44
2022-10-30T20:13:02.336Z,99122.91
2022-10-30T20:15:08.262Z,99123.06
2022-10-30T20:17:18.390Z,99124.94
2022-10-30T20:19:31.221Z,99128.28
2022-10-30T20:21:37.701Z,99127.56
2022-10-30T20:23:42.776Z,99131.00
2022-10-30T20:25:51.108Z,99132.00
2022-10-30T20:28:06.790Z,99129.50
2022-10-30T20:30:19.176Z,99130.25
2022-10-30T20:32:24.176Z,99131.91
2022-10-30T20:34:29.397Z,99131.09
2022-10-30T20:36:34.782Z,99130.31
2022-10-30T20:38:40.763Z,99139.53
2022-10-30T20:40:49.250Z,99142.06
2022-10-30T20:42:57.157Z,99142.97
2022-10-30T20:45:06.224Z,99144.91
2022-10-30T20:47:11.363Z,99146.66
2022-10-30T20:49:17.629Z,99150.78
2022-10-30T20:51:23.444Z,99151.50
2022-10-30T20:53:29.381Z,99151.53
2022-10-30T20:55:36.627Z,99151.50
2022-10-30T20:57:44.243Z,99150.38
2022-10-30T20:59:49.782Z,99157.16
2022-10-30T21:01:55.208Z,99154.72
2022-10-30T21:04:01.898Z,99154.00
2022-10-30T21:06:10.184Z,99152.53
2022-10-30T21:08:15.827Z,99159.16
2022-10-30T21:10:21.012Z,99153.56
2022-10-30T21:12:26.303Z,99156.25
2022-10-30T21:14:34.351Z,99160.28
2022-10-30T21:16:39.710Z,99162.78
2022-10-30T21:18:44.647Z,99157.72
2022-10-30T21:20:50.272Z,99159.44
2022-10-30T21:22:55.336Z,99168.00
2022-10-30T21:25:00.821Z,99165.47
2022-10-30T21:27:06.009Z,99169.66
2022-10-30T21:29:10.951Z,99171.38
2022-10-30T21:31:18.828Z,99168.19
2022-10-30T21:33:23.767Z,99153.19
2022-10-30T21:35:29.361Z,99160.63
2022-10-30T21:37:38.025Z,99164.91
2022-10-30T21:39:43.000Z,99162.66
2022-10-30T21:41:48.234Z,99165.16
2022-10-30T21:43:55.167Z,99158.47
2022-10-30T21:46:00.400Z,99155.06
2022-10-30T21:48:09.290Z,99153.41
2022-10-30T21:50:14.259Z,99154.91
2022-10-30T21:52:20.796Z,99157.50
2022-10-30T21:54:26.166Z,99153.38
2022-10-30T21:56:33.043Z,99150.88
2022-10-30T21:58:38.921Z,99152.53
2022-10-30T22:00:43.926Z,99151.66
2022-10-30T22:02:48.892Z,99158.28
2022-10-30T22:04:56.425Z,99151.59
2022-10-30T22:07:01.702Z,99151.44
2022-10-30T22:09:07.015Z,99159.81
2022-10-30T22:11:13.647Z,99156.50
2022-10-30T22:13:19.755Z,99154.03
2022-10-30T22:15:24.772Z,99154.00
2022-10-30T22:17:32.335Z,99151.44
2022-10-30T22:19:39.781Z,99155.75
2022-10-30T22:21:47.653Z,99152.47
2022-10-30T22:23:52.956Z,99155.75
2022-10-30T22:25:59.934Z,99160.06
2022-10-30T22:28:05.666Z,99160.16
2022-10-30T22:30:12.995Z,99165.97
2022-10-30T22:32:17.926Z,99163.22
2022-10-30T22:34:22.884Z,99169.00
2022-10-30T22:36:30.732Z,99169.72
2022-10-30T22:38:38.510Z,99166.50
2022-10-30T22:40:44.364Z,99171.59
2022-10-30T22:42:49.624Z,99164.06
2022-10-30T22:44:55.025Z,99159.06
2022-10-30T22:46:59.949Z,99165.72
2022-10-30T22:49:06.685Z,99167.41
2022-10-30T22:51:15.664Z,99174.13
2022-10-30T22:53:21.769Z,99169.16
2022-10-30T22:55:31.471Z,99173.41
2022-10-30T22:57:36.395Z,99175.97
2022-10-30T22:59:41.337Z,99171.75
2022-10-30T23:01:46.622Z,99177.53
2022-10-30T23:03:52.422Z,99175.16
2022-10-30T23:05:59.759Z,99173.63
2022-10-30T23:08:05.423Z,99173.59
2022-10-30T23:10:11.746Z,99171.97
2022-10-30T23:12:19.522Z,99182.09
2022-10-30T23:14:24.723Z,99182.13
2022-10-30T23:16:31.686Z,99180.59
2022-10-30T23:18:38.266Z,99181.56
2022-10-30T23:20:44.470Z,99181.50
2022-10-30T23:22:49.392Z,99185.81
2022-10-30T23:24:55.063Z,99177.50
2022-10-30T23:27:00.078Z,99175.03
2022-10-30T23:29:08.634Z,99176.81
2022-10-30T23:31:18.665Z,99179.34
2022-10-30T23:33:23.606Z,99178.59
2022-10-30T23:35:28.579Z,99178.78
2022-10-30T23:37:33.509Z,99185.44
2022-10-30T23:39:38.452Z,99184.69
2022-10-30T23:41:43.726Z,99182.31
2022-10-30T23:43:48.976Z,99179.78
2022-10-30T23:45:56.526Z,99183.09
2022-10-30T23:48:01.841Z,99178.13
2022-10-30T23:50:08.654Z,99179.66
2022-10-30T23:52:13.571Z,99180.50
2022-10-30T23:54:18.735Z,99186.41
2022-10-30T23:56:24.379Z,99181.47
2022-10-30T23:58:29.415Z,99177.34
